createdAt,value
2022-12-08T00:02:30.569Z,2.4
2022-12-08T00:05:30.458Z,2.4
2022-12-08T00:08:30.445Z,2.4
2022-12-08T00:11:30.471Z,2.4
2022-12-08T00:14:30.453Z,2.4
2022-12-08T00:17:30.455Z,2.4
2022-12-08T00:20:30.469Z,2.5
2022-12-08T00:23:30.464Z,2.5
2022-12-08T00:26:30.467Z,2.5
2022-12-08T00:29:30.493Z,2.5
2022-12-08T00:32:30.467Z,2.5
2022-12-08T00:35:30.491Z,2.4
2022-12-08T00:38:30.481Z,2.4
2022-12-08T00:41:30.477Z,2.4
2022-12-08T00:44:30.483Z,2.4
2022-12-08T00:47:30.513Z,2.4
2022-12-08T00:50:30.504Z,2.4
2022-12-08T00:53:30.489Z,2.4
2022-12-08T00:56:30.492Z,2.4
2022-12-08T00:59:30.492Z,2.4
2022-12-08T01:02:30.495Z,2.4
2022-12-08T01:05:30.534Z,2.4
2022-12-08T01:08:30.496Z,2.4
2022-12-08T01:11:30.494Z,2.4
2022-12-08T01:14:30.498Z,2.3
2022-12-08T01:17:30.498Z,2.3
2022-12-08T01:20:30.516Z,2.2
2022-12-08T01:23:30.550Z,2.1
2022-12-08T01:26:30.538Z,2.1
2022-12-08T01:29:30.561Z,2.1
2022-12-08T01:32:30.570Z,2.1
2022-12-08T01:35:30.596Z,2
2022-12-08T01:38:30.593Z,2.1
2022-12-08T01:41:30.634Z,2.1
2022-12-08T01:44:30.617Z,2.1
2022-12-08T01:47:30.698Z,2.1
2022-12-08T01:50:30.639Z,2.2
2022-12-08T01:53:30.632Z,2.2
2022-12-08T01:56:30.635Z,2.2
2022-12-08T01:59:30.662Z,2.2
2022-12-08T02:02:30.756Z,2.2
2022-12-08T02:05:30.659Z,2.2
2022-12-08T02:08:30.721Z,2.3
2022-12-08T02:11:30.667Z,2.3
2022-12-08T02:14:30.669Z,2.3
2022-12-08T02:17:30.698Z,2.4
2022-12-08T02:20:30.693Z,2.4
2022-12-08T02:23:30.683Z,2.4
2022-12-08T02:26:30.689Z,2.5
2022-12-08T02:29:30.690Z,2.5
2022-12-08T02:32:30.699Z,2.5
2022-12-08T02:35:30.759Z,2.6
2022-12-08T02:38:30.708Z,2.6
2022-12-08T02:41:30.709Z,2.6
2022-12-08T02:44:30.714Z,2.6
2022-12-08T02:47:30.724Z,2.7
2022-12-08T02:50:30.737Z,2.7
2022-12-08T02:53:30.760Z,2.7
2022-12-08T02:56:30.738Z,2.7
2022-12-08T02:59:30.738Z,2.7
2022-12-08T03:02:30.785Z,2.7
2022-12-08T03:05:30.769Z,2.7
2022-12-08T03:08:30.793Z,2.7
2022-12-08T03:11:30.785Z,2.7
2022-12-08T03:14:30.759Z,2.7
2022-12-08T03:17:30.767Z,2.7
2022-12-08T03:20:30.782Z,2.7
2022-12-08T03:23:30.782Z,2.7
2022-12-08T03:26:30.786Z,2.7
2022-12-08T03:29:30.820Z,2.7
2022-12-08T03:32:30.798Z,2.7
2022-12-08T03:35:30.812Z,2.6
2022-12-08T03:38:30.803Z,2.6
2022-12-08T03:41:30.810Z,2.6
2022-12-08T03:44:30.814Z,2.6
2022-12-08T03:47:30.837Z,2.5
2022-12-08T03:50:30.829Z,2.5
2022-12-08T03:53:30.828Z,2.6
2022-12-08T03:56:30.838Z,2.5
2022-12-08T03:59:30.836Z,2.5
2022-12-08T04:02:30.883Z,2.5
2022-12-08T04:05:30.881Z,2.5
2022-12-08T04:08:30.851Z,2.5
2022-12-08T04:11:30.855Z,2.5
2022-12-08T04:14:30.861Z,2.5
2022-12-08T04:17:30.866Z,2.5
2022-12-08T04:20:30.884Z,2.5
2022-12-08T04:23:30.901Z,2.4
2022-12-08T04:26:30.883Z,2.3
2022-12-08T04:29:30.891Z,2.3
2022-12-08T04:32:30.891Z,2.2
2022-12-08T04:35:30.901Z,2.1
2022-12-08T04:38:30.909Z,2.1
2022-12-08T04:41:30.941Z,2.1
2022-12-08T04:44:30.919Z,2.1
2022-12-08T04:47:30.921Z,2.1
2022-12-08T04:50:30.926Z,2.1
2022-12-08T04:53:30.929Z,2.1
2022-12-08T04:56:30.941Z,2
2022-12-08T04:59:30.967Z,2
2022-12-08T05:02:30.980Z,1.9
2022-12-08T05:05:30.951Z,1.9
2022-12-08T05:08:30.986Z,1.9
2022-12-08T05:11:30.954Z,1.9
2022-12-08T05:14:30.961Z,1.8
2022-12-08T05:17:30.992Z,1.8
2022-12-08T05:20:30.973Z,1.8
2022-12-08T05:23:30.978Z,1.9
2022-12-08T05:26:30.980Z,1.9
2022-12-08T05:29:30.989Z,1.8
2022-12-08T05:32:30.997Z,1.9
2022-12-08T05:35:31.017Z,1.9
2022-12-08T05:38:31.002Z,1.9
2022-12-08T05:41:31.004Z,1.9
2022-12-08T05:44:31.012Z,1.9
2022-12-08T05:47:35.786Z,2
2022-12-08T05:50:31.019Z,2
2022-12-08T05:53:31.044Z,2.1
2022-12-08T05:56:31.032Z,2.2
2022-12-08T05:59:31.032Z,2.3
2022-12-08T06:02:31.117Z,2.3
2022-12-08T06:05:31.041Z,2.4
2022-12-08T06:08:31.131Z,2.4
2022-12-08T06:11:31.080Z,2.5
2022-12-08T06:14:31.060Z,2.5
2022-12-08T06:17:31.065Z,2.5
2022-12-08T06:20:31.069Z,2.4
2022-12-08T06:23:31.079Z,2.4
2022-12-08T06:26:31.083Z,2.4
2022-12-08T06:29:31.111Z,2.3
2022-12-08T06:32:31.171Z,2.3
2022-12-08T06:35:31.100Z,2.3
2022-12-08T06:38:31.109Z,2.3
2022-12-08T06:41:31.105Z,2.4
2022-12-08T06:44:31.110Z,2.4
2022-12-08T06:47:31.142Z,2.4
2022-12-08T06:50:31.119Z,2.5
2022-12-08T06:53:31.124Z,2.5
2022-12-08T06:56:31.144Z,2.5
2022-12-08T06:59:31.131Z,2.5
2022-12-08T07:02:31.169Z,2.5
2022-12-08T07:05:31.167Z,2.5
2022-12-08T07:08:31.222Z,2.6
2022-12-08T07:11:31.159Z,2.6
2022-12-08T07:14:31.263Z,2.6
2022-12-08T07:17:31.255Z,2.6
2022-12-08T07:20:31.329Z,2.6
2022-12-08T07:23:31.203Z,2.6
2022-12-08T07:26:31.181Z,2.6
2022-12-08T07:29:31.182Z,2.7
2022-12-08T07:32:31.205Z,2.7
2022-12-08T07:35:31.185Z,2.7
2022-12-08T07:38:31.199Z,2.8
2022-12-08T07:41:31.220Z,2.8
2022-12-08T07:44:31.208Z,2.8
2022-12-08T07:47:31.211Z,2.8
2022-12-08T07:50:31.218Z,2.8
2022-12-08T07:53:31.223Z,2.8
2022-12-08T07:56:31.233Z,2.9
2022-12-08T07:59:31.266Z,2.9
2022-12-08T08:02:31.340Z,2.9
2022-12-08T08:05:31.246Z,2.9
2022-12-08T08:08:31.352Z,2.8
2022-12-08T08:11:31.261Z,2.9
2022-12-08T08:14:31.268Z,2.8
2022-12-08T08:17:31.433Z,2.8
2022-12-08T08:20:31.281Z,2.8
2022-12-08T08:23:31.289Z,2.8
2022-12-08T08:26:31.291Z,2.8
2022-12-08T08:29:31.304Z,2.8
2022-12-08T08:32:31.303Z,2.8
2022-12-08T08:35:31.323Z,2.8
2022-12-08T08:38:31.312Z,2.8
2022-12-08T08:41:31.304Z,2.8
2022-12-08T08:44:31.310Z,2.8
2022-12-08T08:47:31.313Z,2.7
2022-12-08T08:50:35.944Z,2.7
2022-12-08T08:53:31.351Z,2.6
2022-12-08T08:56:31.328Z,2.6
2022-12-08T08:59:31.350Z,2.6
2022-12-08T09:02:31.365Z,2.6
2022-12-08T09:05:31.340Z,2.5
2022-12-08T09:08:31.427Z,2.5
2022-12-08T09:11:31.393Z,2.4
2022-12-08T09:14:31.382Z,2.1
2022-12-08T09:17:31.395Z,1.9
2022-12-08T09:20:31.398Z,1.9
2022-12-08T09:23:35.317Z,1.8
2022-12-08T09:26:31.408Z,1.8
2022-12-08T09:29:35.840Z,1.8
2022-12-08T09:32:31.416Z,1.8
2022-12-08T09:35:31.407Z,1.8
2022-12-08T09:38:31.410Z,1.9
2022-12-08T09:41:36.761Z,2
2022-12-08T09:44:31.414Z,2.1
2022-12-08T09:47:35.660Z,2.1
2022-12-08T09:50:31.412Z,2.2
2022-12-08T09:53:35.444Z,2.3
2022-12-08T09:56:31.417Z,2.4
2022-12-08T09:59:31.422Z,2.5
2022-12-08T10:02:31.425Z,2.5
2022-12-08T10:05:31.509Z,2.5
2022-12-08T10:08:31.525Z,2.5
2022-12-08T10:11:31.427Z,2.6
2022-12-08T10:14:31.428Z,2.6
2022-12-08T10:17:31.481Z,2.7
2022-12-08T10:20:31.427Z,2.7
2022-12-08T10:23:31.452Z,2.8
2022-12-08T10:26:31.428Z,2.8
2022-12-08T10:29:31.449Z,2.8
2022-12-08T10:32:31.453Z,2.9
2022-12-08T10:35:31.436Z,2.9
2022-12-08T10:38:31.438Z,3
2022-12-08T10:41:31.467Z,3.1
2022-12-08T10:44:31.448Z,3.1
2022-12-08T10:47:31.438Z,3.1
2022-12-08T10:50:31.447Z,3.2
2022-12-08T10:53:31.444Z,3.2
2022-12-08T10:56:31.444Z,3.2
2022-12-08T10:59:31.468Z,3.2
2022-12-08T11:02:31.501Z,3.2
2022-12-08T11:05:31.446Z,3.2
2022-12-08T11:08:31.512Z,3.3
2022-12-08T11:11:31.448Z,3.3
2022-12-08T11:14:31.450Z,3.4
2022-12-08T11:17:31.480Z,3.4
2022-12-08T11:20:31.470Z,3.5
2022-12-08T11:23:31.469Z,3.5
2022-12-08T11:26:31.471Z,3.5
2022-12-08T11:29:31.475Z,3.6
2022-12-08T11:32:31.482Z,3.6
2022-12-08T11:35:31.504Z,3.7
2022-12-08T11:38:31.488Z,3.6
2022-12-08T11:41:31.491Z,3.6
2022-12-08T11:44:31.492Z,3.6
2022-12-08T11:47:31.496Z,3.6
2022-12-08T11:50:31.499Z,3.6
2022-12-08T11:53:31.695Z,3.7
2022-12-08T11:56:31.501Z,3.6
2022-12-08T11:59:31.515Z,3.7
2022-12-08T12:02:31.561Z,3.7
2022-12-08T12:05:56.953Z,3.6
2022-12-08T12:08:31.589Z,3.6
2022-12-08T12:11:31.550Z,3.6
2022-12-08T12:14:31.531Z,3.6
2022-12-08T12:17:31.536Z,3.5
2022-12-08T12:20:31.539Z,3.5
2022-12-08T12:23:31.544Z,3.5
2022-12-08T12:26:31.555Z,3.5
2022-12-08T12:29:31.582Z,3.4
2022-12-08T12:32:31.560Z,3.4
2022-12-08T12:35:31.567Z,3.4
2022-12-08T12:38:31.569Z,3.5
2022-12-08T12:41:31.571Z,3.5
2022-12-08T12:44:31.579Z,3.5
2022-12-08T12:47:31.611Z,3.5
2022-12-08T12:50:31.591Z,3.4
2022-12-08T12:53:31.599Z,3.4
2022-12-08T12:56:31.609Z,3.4
2022-12-08T12:59:31.614Z,3.4
2022-12-08T13:02:31.666Z,3.4
2022-12-08T13:05:31.651Z,3.3
2022-12-08T13:08:31.689Z,3.3
2022-12-08T13:11:31.660Z,3.3
2022-12-08T13:14:31.655Z,3.3
2022-12-08T13:17:31.657Z,3.3
2022-12-08T13:20:31.668Z,3.3
2022-12-08T13:23:31.700Z,3.3
2022-12-08T13:26:31.689Z,3.3
2022-12-08T13:29:31.690Z,3.3
2022-12-08T13:32:43.489Z,3.2
2022-12-08T13:35:31.705Z,3.2
2022-12-08T13:38:31.712Z,3.1
2022-12-08T13:41:31.766Z,3.1
2022-12-08T13:47:33.639Z,3
2022-12-08T13:53:56.285Z,2.9
2022-12-08T13:59:31.775Z,2.8
2022-12-08T14:02:31.799Z,2.7
2022-12-08T14:06:03.074Z,2.6
2022-12-08T14:08:58.225Z,2.6
2022-12-08T14:11:31.780Z,2.5
2022-12-08T14:15:02.318Z,2.4
2022-12-08T14:17:31.822Z,2.3
2022-12-08T14:20:31.804Z,2.2
2022-12-08T14:23:31.797Z,2.2
2022-12-08T14:26:31.801Z,2.1
2022-12-08T14:29:31.866Z,2
2022-12-08T14:32:31.814Z,1.9
2022-12-08T14:35:31.838Z,1.9
2022-12-08T14:38:31.845Z,1.9
2022-12-08T14:41:31.822Z,1.8
2022-12-08T14:44:31.828Z,1.7
2022-12-08T14:47:31.841Z,1.7
2022-12-08T14:50:31.834Z,1.6
2022-12-08T14:53:31.895Z,1.5
2022-12-08T14:56:31.853Z,1.5
2022-12-08T14:59:31.955Z,1.4
2022-12-08T15:02:31.852Z,1.4
2022-12-08T15:05:31.854Z,1.4
2022-12-08T15:08:31.858Z,1.3
2022-12-08T15:11:31.920Z,1.3
2022-12-08T15:14:31.862Z,1.2
2022-12-08T15:17:31.864Z,1.1
2022-12-08T15:20:35.289Z,1.1
2022-12-08T15:23:31.877Z,1
2022-12-08T15:26:31.872Z,0.9
2022-12-08T15:29:31.894Z,0.9
2022-12-08T15:32:31.874Z,0.8
2022-12-08T15:35:34.707Z,0.8
2022-12-08T15:38:31.879Z,0.8
2022-12-08T15:41:31.886Z,0.7
2022-12-08T15:44:31.906Z,0.7
2022-12-08T15:47:31.933Z,0.6
2022-12-08T15:50:31.924Z,0.5
2022-12-08T15:53:31.927Z,0.4
2022-12-08T15:56:32.377Z,0.3
2022-12-08T15:59:31.965Z,0.3
2022-12-08T16:02:49.357Z,0.2
2022-12-08T16:05:44.435Z,0.1
2022-12-08T16:08:46.105Z,0
2022-12-08T16:12:04.328Z,-0.1
2022-12-08T16:17:31.987Z,-0.1
2022-12-08T16:20:58.807Z,-0.1
2022-12-08T16:23:42.734Z,-0.1
2022-12-08T16:29:32.011Z,0.2
2022-12-08T16:32:32.061Z,0.3
2022-12-08T16:35:32.019Z,0.4
2022-12-08T16:38:32.024Z,0.4
2022-12-08T16:41:32.067Z,0.3
2022-12-08T16:44:32.038Z,0.1
2022-12-08T16:47:32.042Z,0
2022-12-08T16:50:32.056Z,0
2022-12-08T16:53:32.054Z,-0.1
2022-12-08T16:56:33.329Z,-0.2
2022-12-08T16:59:32.087Z,-0.3
2022-12-08T17:02:32.068Z,-0.4
2022-12-08T17:05:32.202Z,-0.5
2022-12-08T17:08:32.133Z,-0.5
2022-12-08T17:11:34.972Z,-0.5
2022-12-08T17:14:32.089Z,-0.6
2022-12-08T17:17:32.114Z,-0.7
2022-12-08T17:20:32.094Z,-0.7
2022-12-08T17:23:32.102Z,-0.8
2022-12-08T17:26:32.111Z,-0.8
2022-12-08T17:29:32.104Z,-0.8
2022-12-08T17:32:32.162Z,-0.7
2022-12-08T17:35:32.140Z,-0.7
2022-12-08T17:38:32.122Z,-0.7
2022-12-08T17:41:32.125Z,-0.6
2022-12-08T17:44:32.128Z,-0.6
2022-12-08T17:47:32.137Z,-0.7
2022-12-08T17:50:32.142Z,-0.8
2022-12-08T17:53:37.150Z,-1
2022-12-08T17:56:32.155Z,-1.1
2022-12-08T17:59:32.168Z,-1
2022-12-08T18:02:32.221Z,-1.1
2022-12-08T18:05:32.179Z,-1.2
2022-12-08T18:08:32.174Z,-1.2
2022-12-08T18:11:32.213Z,-1.2
2022-12-08T18:14:32.192Z,-1.4
2022-12-08T18:17:32.187Z,-1.5
2022-12-08T18:20:32.200Z,-1.6
2022-12-08T18:23:32.198Z,-1.8
2022-12-08T18:26:32.204Z,-1.8
2022-12-08T18:29:32.234Z,-1.9
2022-12-08T18:32:32.210Z,-1.7
2022-12-08T18:35:32.215Z,-1.6
2022-12-08T18:38:32.221Z,-1.6
2022-12-08T18:41:32.232Z,-1.7
2022-12-08T18:44:32.231Z,-1.8
2022-12-08T18:47:32.271Z,-2
2022-12-08T18:50:32.240Z,-2.1
2022-12-08T18:53:32.247Z,-2.2
2022-12-08T18:56:32.249Z,-2.3
2022-12-08T18:59:32.255Z,-2.3
2022-12-08T19:02:32.362Z,-2.2
2022-12-08T19:05:32.297Z,-2
2022-12-08T19:08:32.362Z,-1.8
2022-12-08T19:11:32.278Z,-1.7
2022-12-08T19:14:32.276Z,-1.5
2022-12-08T19:17:32.283Z,-1.4
2022-12-08T19:20:32.283Z,-1.3
2022-12-08T19:23:32.314Z,-1.3
2022-12-08T19:26:32.298Z,-1.4
2022-12-08T19:29:32.300Z,-1.5
2022-12-08T19:32:32.302Z,-1.5
2022-12-08T19:35:32.348Z,-1.5
2022-12-08T19:38:32.321Z,-1.4
2022-12-08T19:41:32.350Z,-1.3
2022-12-08T19:44:32.315Z,-1.2
2022-12-08T19:47:32.378Z,-1.2
2022-12-08T19:50:32.338Z,-1.2
2022-12-08T19:53:32.328Z,-1.2
2022-12-08T19:56:32.329Z,-1.3
2022-12-08T19:59:32.368Z,-1.4
2022-12-08T20:02:32.417Z,-1.4
2022-12-08T20:05:32.342Z,-1.5
2022-12-08T20:08:32.399Z,-1.6
2022-12-08T20:11:32.355Z,-1.7
2022-12-08T20:14:32.367Z,-1.8
2022-12-08T20:17:32.413Z,-1.9
2022-12-08T20:20:32.372Z,-2
2022-12-08T20:23:32.370Z,-2.1
2022-12-08T20:26:32.374Z,-2.2
2022-12-08T20:29:32.397Z,-2.2
2022-12-08T20:32:32.389Z,-2.2
2022-12-08T20:35:32.415Z,-2.2
2022-12-08T20:38:32.404Z,-2.3
2022-12-08T20:41:36.262Z,-2.4
2022-12-08T20:44:32.405Z,-2.4
2022-12-08T20:47:32.487Z,-2.3
2022-12-08T20:50:32.453Z,-2.3
2022-12-08T20:53:32.477Z,-2.3
2022-12-08T20:56:32.441Z,-2.3
2022-12-08T20:59:32.442Z,-2.2
2022-12-08T21:02:32.551Z,-2.2
2022-12-08T21:05:32.488Z,-2.2
2022-12-08T21:08:32.581Z,-2.3
2022-12-08T21:11:32.522Z,-2.4
2022-12-08T21:14:32.630Z,-2.4
2022-12-08T21:17:32.525Z,-2.4
2022-12-08T21:20:32.463Z,-2.4
2022-12-08T21:23:32.558Z,-2.4
2022-12-08T21:26:32.516Z,-2.5
2022-12-08T21:29:32.497Z,-2.6
2022-12-08T21:32:32.514Z,-2.6
2022-12-08T21:35:32.482Z,-2.6
2022-12-08T21:38:32.687Z,-2.6
2022-12-08T21:41:32.523Z,-2.6
2022-12-08T21:44:32.652Z,-2.5
2022-12-08T21:47:32.644Z,-2.6
2022-12-08T21:50:32.509Z,-2.7
2022-12-08T21:53:32.692Z,-2.8
2022-12-08T21:56:32.632Z,-2.8
2022-12-08T21:59:32.568Z,-2.8
2022-12-08T22:02:32.700Z,-2.9
2022-12-08T22:05:32.550Z,-2.9
2022-12-08T22:08:32.744Z,-3
2022-12-08T22:11:32.628Z,-3.1
2022-12-08T22:14:32.610Z,-3.1
2022-12-08T22:17:32.787Z,-3.1
2022-12-08T22:20:32.744Z,-3.1
2022-12-08T22:23:32.666Z,-3.1
2022-12-08T22:26:32.643Z,-3.1
2022-12-08T22:29:32.777Z,-3
2022-12-08T22:32:32.686Z,-3.1
2022-12-08T22:35:32.683Z,-3.1
2022-12-08T22:38:32.575Z,-3.2
2022-12-08T22:41:32.614Z,-3.2
2022-12-08T22:44:32.591Z,-3.2
2022-12-08T22:47:32.683Z,-3.2
2022-12-08T22:50:32.602Z,-3.1
2022-12-08T22:53:32.607Z,-3.2
2022-12-08T22:56:32.667Z,-3.4
2022-12-08T22:59:32.826Z,-3.4
2022-12-08T23:02:32.625Z,-3.5
2022-12-08T23:05:32.876Z,-3.5
2022-12-08T23:08:32.728Z,-3.5
2022-12-08T23:11:32.818Z,-3.5
2022-12-08T23:14:32.850Z,-3.5
2022-12-08T23:17:32.763Z,-3.6
2022-12-08T23:20:32.645Z,-3.6
2022-12-08T23:23:32.794Z,-3.7
2022-12-08T23:26:32.698Z,-3.7
2022-12-08T23:29:32.888Z,-3.7
2022-12-08T23:32:32.803Z,-3.6
2022-12-08T23:35:32.778Z,-3.7
2022-12-08T23:38:32.690Z,-3.8
2022-12-08T23:41:32.694Z,-3.9
2022-12-08T23:44:32.687Z,-3.9
2022-12-08T23:47:32.798Z,-4.1
2022-12-08T23:50:32.697Z,-4.1
2022-12-08T23:53:32.759Z,-4.1
2022-12-08T23:56:32.835Z,-4
2022-12-08T23:59:32.721Z,-3.9
